sensor_id;sensor_type;location;lat;lon;timestamp;P1;durP1;ratioP1;P2;durP2;ratioP2
2111;SDS011;1062;52.538;13.400;2023-03-21T00:00:28;8.50;;;6.90;;
2111;SDS011;1062;52.538;13.400;2023-03-21T00:02:53;8.70;;;6.40;;
2111;SDS011;1062;52.538;13.400;2023-03-21T00:05:19;8.20;;;6.53;;
2111;SDS011;1062;52.538;13.400;2023-03-21T00:07:45;6.27;;;5.67;;
2111;SDS011;1062;52.538;13.400;2023-03-21T00:10:11;7.00;;;6.30;;
2111;SDS011;1062;52.538;13.400;2023-03-21T00:12:37;6.57;;;5.97;;
2111;SDS011;1062;52.538;13.400;2023-03-21T00:15:06;7.53;;;6.73;;
2111;SDS011;1062;52.538;13.400;2023-03-21T00:17:33;10.47;;;6.23;;
2111;SDS011;1062;52.538;13.400;2023-03-21T00:20:00;12.87;;;6.57;;
2111;SDS011;1062;52.538;13.400;2023-03-21T00:22:29;11.97;;;6.67;;
2111;SDS011;1062;52.538;13.400;2023-03-21T00:24:56;10.53;;;6.47;;
2111;SDS011;1062;52.538;13.400;2023-03-21T00:27:21;8.40;;;6.70;;
2111;SDS011;1062;52.538;13.400;2023-03-21T00:29:47;7.50;;;5.40;;
2111;SDS011;1062;52.538;13.400;2023-03-21T00:32:14;6.37;;;5.77;;
2111;SDS011;1062;52.538;13.400;2023-03-21T00:34:40;9.40;;;7.30;;
2111;SDS011;1062;52.538;13.400;2023-03-21T00:37:06;10.07;;;6.30;;
2111;SDS011;1062;52.538;13.400;2023-03-21T00:39:33;6.37;;;5.77;;
2111;SDS011;1062;52.538;13.400;2023-03-21T00:41:59;6.57;;;5.87;;
2111;SDS011;1062;52.538;13.400;2023-03-21T00:44:25;11.73;;;6.53;;
2111;SDS011;1062;52.538;13.400;2023-03-21T00:46:51;7.73;;;6.13;;
2111;SDS011;1062;52.538;13.400;2023-03-21T00:49:17;9.63;;;6.40;;
2111;SDS011;1062;52.538;13.400;2023-03-21T00:51:44;8.73;;;7.30;;
2111;SDS011;1062;52.538;13.400;2023-03-21T00:54:11;11.20;;;8.73;;
2111;SDS011;1062;52.538;13.400;2023-03-21T00:56:37;9.13;;;7.43;;
2111;SDS011;1062;52.538;13.400;2023-03-21T00:59:02;10.93;;;8.17;;
2111;SDS011;1062;52.538;13.400;2023-03-21T01:01:28;8.10;;;7.30;;
2111;SDS011;1062;52.538;13.400;2023-03-21T01:03:58;11.00;;;7.63;;
2111;SDS011;1062;52.538;13.400;2023-03-21T01:06:35;9.20;;;7.80;;
2111;SDS011;1062;52.538;13.400;2023-03-21T01:09:12;11.73;;;8.30;;
2111;SDS011;1062;52.538;13.400;2023-03-21T01:11:40;12.43;;;7.70;;
2111;SDS011;1062;52.538;13.400;2023-03-21T01:14:07;8.80;;;7.87;;
2111;SDS011;1062;52.538;13.400;2023-03-21T01:16:33;9.73;;;8.57;;
2111;SDS011;1062;52.538;13.400;2023-03-21T01:18:59;13.70;;;8.93;;
2111;SDS011;1062;52.538;13.400;2023-03-21T01:21:25;10.53;;;9.33;;
2111;SDS011;1062;52.538;13.400;2023-03-21T01:23:50;16.03;;;10.57;;
2111;SDS011;1062;52.538;13.400;2023-03-21T01:26:16;14.47;;;11.70;;
2111;SDS011;1062;52.538;13.400;2023-03-21T01:28:42;14.80;;;10.43;;
2111;SDS011;1062;52.538;13.400;2023-03-21T01:31:10;11.47;;;9.90;;
2111;SDS011;1062;52.538;13.400;2023-03-21T01:33:37;12.17;;;10.67;;
2111;SDS011;1062;52.538;13.400;2023-03-21T01:36:03;16.33;;;10.63;;
2111;SDS011;1062;52.538;13.400;2023-03-21T01:38:30;15.00;;;11.23;;
2111;SDS011;1062;52.538;13.400;2023-03-21T01:40:58;14.10;;;11.03;;
2111;SDS011;1062;52.538;13.400;2023-03-21T01:43:29;14.50;;;11.30;;
2111;SDS011;1062;52.538;13.400;2023-03-21T01:46:05;16.17;;;12.40;;
2111;SDS011;1062;52.538;13.400;2023-03-21T01:48:45;17.10;;;10.90;;
2111;SDS011;1062;52.538;13.400;2023-03-21T01:51:13;15.27;;;12.47;;
2111;SDS011;1062;52.538;13.400;2023-03-21T01:53:40;19.07;;;11.87;;
2111;SDS011;1062;52.538;13.400;2023-03-21T01:56:10;13.40;;;11.27;;
2111;SDS011;1062;52.538;13.400;2023-03-21T01:58:40;18.00;;;11.73;;
2111;SDS011;1062;52.538;13.400;2023-03-21T02:01:07;22.23;;;12.67;;
2111;SDS011;1062;52.538;13.400;2023-03-21T02:03:34;20.40;;;15.40;;
2111;SDS011;1062;52.538;13.400;2023-03-21T02:06:07;18.27;;;13.50;;
2111;SDS011;1062;52.538;13.400;2023-03-21T02:08:36;21.40;;;15.97;;
2111;SDS011;1062;52.538;13.400;2023-03-21T02:11:02;19.50;;;15.47;;
2111;SDS011;1062;52.538;13.400;2023-03-21T02:13:28;25.13;;;16.30;;
2111;SDS011;1062;52.538;13.400;2023-03-21T02:16:00;21.57;;;16.07;;
2111;SDS011;1062;52.538;13.400;2023-03-21T02:27:15;18.77;;;15.83;;
2111;SDS011;1062;52.538;13.400;2023-03-21T02:46:42;19.83;;;15.73;;
2111;SDS011;1062;52.538;13.400;2023-03-21T02:52:10;20.73;;;17.17;;
2111;SDS011;1062;52.538;13.400;2023-03-21T02:54:42;22.87;;;16.37;;
2111;SDS011;1062;52.538;13.400;2023-03-21T02:57:08;24.30;;;17.50;;
2111;SDS011;1062;52.538;13.400;2023-03-21T02:59:34;21.30;;;17.17;;
2111;SDS011;1062;52.538;13.400;2023-03-21T03:02:02;22.80;;;17.67;;
2111;SDS011;1062;52.538;13.400;2023-03-21T03:04:28;23.20;;;18.00;;
2111;SDS011;1062;52.538;13.400;2023-03-21T03:10:10;20.97;;;16.73;;
2111;SDS011;1062;52.538;13.400;2023-03-21T03:12:33;27.30;;;18.87;;
2111;SDS011;1062;52.538;13.400;2023-03-21T03:20:34;25.77;;;18.00;;
2111;SDS011;1062;52.538;13.400;2023-03-21T03:26:06;19.37;;;15.47;;
2111;SDS011;1062;52.538;13.400;2023-03-21T03:28:37;23.20;;;16.60;;
2111;SDS011;1062;52.538;13.400;2023-03-21T03:31:06;25.33;;;18.23;;
2111;SDS011;1062;52.538;13.400;2023-03-21T03:33:37;22.70;;;16.87;;
2111;SDS011;1062;52.538;13.400;2023-03-21T03:36:08;25.87;;;17.83;;
2111;SDS011;1062;52.538;13.400;2023-03-21T03:38:36;23.80;;;17.10;;
2111;SDS011;1062;52.538;13.400;2023-03-21T03:41:06;25.20;;;17.80;;
2111;SDS011;1062;52.538;13.400;2023-03-21T03:43:38;26.03;;;17.90;;
2111;SDS011;1062;52.538;13.400;2023-03-21T03:46:20;28.57;;;16.97;;
2111;SDS011;1062;52.538;13.400;2023-03-21T03:48:51;25.97;;;16.40;;
2111;SDS011;1062;52.538;13.400;2023-03-21T03:51:39;31.90;;;18.80;;
2111;SDS011;1062;52.538;13.400;2023-03-21T03:54:09;21.50;;;16.37;;
2111;SDS011;1062;52.538;13.400;2023-03-21T03:56:37;22.67;;;16.50;;
2111;SDS011;1062;52.538;13.400;2023-03-21T03:59:04;25.20;;;18.97;;
2111;SDS011;1062;52.538;13.400;2023-03-21T04:01:31;27.87;;;18.10;;
2111;SDS011;1062;52.538;13.400;2023-03-21T04:03:58;27.23;;;19.27;;
2111;SDS011;1062;52.538;13.400;2023-03-21T04:06:24;24.60;;;17.47;;
2111;SDS011;1062;52.538;13.400;2023-03-21T04:08:52;28.17;;;18.17;;
2111;SDS011;1062;52.538;13.400;2023-03-21T04:11:20;22.90;;;17.47;;
2111;SDS011;1062;52.538;13.400;2023-03-21T04:13:46;26.40;;;17.87;;
2111;SDS011;1062;52.538;13.400;2023-03-21T04:16:12;27.63;;;17.87;;
2111;SDS011;1062;52.538;13.400;2023-03-21T04:18:38;25.97;;;18.00;;
2111;SDS011;1062;52.538;13.400;2023-03-21T04:21:11;21.30;;;17.60;;
2111;SDS011;1062;52.538;13.400;2023-03-21T04:23:38;22.97;;;16.77;;
2111;SDS011;1062;52.538;13.400;2023-03-21T04:26:05;28.33;;;17.30;;
2111;SDS011;1062;52.538;13.400;2023-03-21T04:28:31;25.80;;;16.83;;
2111;SDS011;1062;52.538;13.400;2023-03-21T04:30:57;24.97;;;19.37;;
2111;SDS011;1062;52.538;13.400;2023-03-21T04:33:23;25.17;;;16.83;;
2111;SDS011;1062;52.538;13.400;2023-03-21T04:35:52;21.17;;;15.57;;
2111;SDS011;1062;52.538;13.400;2023-03-21T04:38:23;25.27;;;17.43;;
2111;SDS011;1062;52.538;13.400;2023-03-21T04:40:50;25.37;;;16.70;;
2111;SDS011;1062;52.538;13.400;2023-03-21T04:43:16;25.43;;;18.23;;
2111;SDS011;1062;52.538;13.400;2023-03-21T04:45:42;29.33;;;18.10;;
2111;SDS011;1062;52.538;13.400;2023-03-21T04:48:08;24.77;;;17.00;;
2111;SDS011;1062;52.538;13.400;2023-03-21T04:50:34;26.87;;;17.10;;
2111;SDS011;1062;52.538;13.400;2023-03-21T04:52:59;27.50;;;18.50;;
2111;SDS011;1062;52.538;13.400;2023-03-21T04:55:25;24.23;;;17.50;;
2111;SDS011;1062;52.538;13.400;2023-03-21T04:57:53;28.77;;;17.73;;
2111;SDS011;1062;52.538;13.400;2023-03-21T05:00:18;27.03;;;18.20;;
2111;SDS011;1062;52.538;13.400;2023-03-21T05:02:45;29.30;;;18.13;;
2111;SDS011;1062;52.538;13.400;2023-03-21T05:05:14;24.77;;;15.73;;
2111;SDS011;1062;52.538;13.400;2023-03-21T05:07:40;24.67;;;15.93;;
2111;SDS011;1062;52.538;13.400;2023-03-21T05:10:06;27.97;;;17.23;;
2111;SDS011;1062;52.538;13.400;2023-03-21T05:12:35;31.40;;;17.70;;
2111;SDS011;1062;52.538;13.400;2023-03-21T05:15:01;28.67;;;16.80;;
2111;SDS011;1062;52.538;13.400;2023-03-21T05:17:28;27.40;;;18.73;;
2111;SDS011;1062;52.538;13.400;2023-03-21T05:19:54;29.70;;;17.40;;
2111;SDS011;1062;52.538;13.400;2023-03-21T05:22:23;21.07;;;15.90;;
2111;SDS011;1062;52.538;13.400;2023-03-21T05:24:51;26.17;;;18.10;;
2111;SDS011;1062;52.538;13.400;2023-03-21T05:27:19;22.90;;;17.00;;
2111;SDS011;1062;52.538;13.400;2023-03-21T05:30:03;25.97;;;17.50;;
2111;SDS011;1062;52.538;13.400;2023-03-21T05:32:31;19.53;;;15.53;;
2111;SDS011;1062;52.538;13.400;2023-03-21T05:34:56;24.53;;;17.00;;
2111;SDS011;1062;52.538;13.400;2023-03-21T05:37:22;24.70;;;15.17;;
2111;SDS011;1062;52.538;13.400;2023-03-21T05:39:48;26.57;;;16.70;;
2111;SDS011;1062;52.538;13.400;2023-03-21T05:42:14;30.13;;;16.30;;
2111;SDS011;1062;52.538;13.400;2023-03-21T05:44:40;32.30;;;17.67;;
2111;SDS011;1062;52.538;13.400;2023-03-21T05:47:06;30.37;;;16.57;;
2111;SDS011;1062;52.538;13.400;2023-03-21T05:49:32;37.60;;;16.63;;
2111;SDS011;1062;52.538;13.400;2023-03-21T05:51:58;30.30;;;18.27;;
2111;SDS011;1062;52.538;13.400;2023-03-21T05:54:23;36.17;;;20.70;;
2111;SDS011;1062;52.538;13.400;2023-03-21T05:56:49;32.53;;;18.83;;
2111;SDS011;1062;52.538;13.400;2023-03-21T05:59:14;25.63;;;17.33;;
2111;SDS011;1062;52.538;13.400;2023-03-21T06:01:40;31.17;;;18.00;;
2111;SDS011;1062;52.538;13.400;2023-03-21T06:04:06;26.90;;;17.60;;
2111;SDS011;1062;52.538;13.400;2023-03-21T06:06:32;33.10;;;18.63;;
2111;SDS011;1062;52.538;13.400;2023-03-21T06:08:57;28.40;;;19.23;;
2111;SDS011;1062;52.538;13.400;2023-03-21T06:11:25;26.03;;;17.33;;
2111;SDS011;1062;52.538;13.400;2023-03-21T06:13:52;31.00;;;18.63;;
2111;SDS011;1062;52.538;13.400;2023-03-21T06:16:18;32.70;;;19.37;;
2111;SDS011;1062;52.538;13.400;2023-03-21T06:18:44;28.20;;;16.57;;
2111;SDS011;1062;52.538;13.400;2023-03-21T06:21:09;27.13;;;17.77;;
2111;SDS011;1062;52.538;13.400;2023-03-21T06:23:35;27.70;;;16.83;;
2111;SDS011;1062;52.538;13.400;2023-03-21T06:26:01;32.03;;;16.63;;
2111;SDS011;1062;52.538;13.400;2023-03-21T06:28:27;25.67;;;16.30;;
2111;SDS011;1062;52.538;13.400;2023-03-21T06:30:53;25.63;;;16.80;;
2111;SDS011;1062;52.538;13.400;2023-03-21T06:33:18;26.07;;;16.50;;
2111;SDS011;1062;52.538;13.400;2023-03-21T06:35:49;32.13;;;16.97;;
2111;SDS011;1062;52.538;13.400;2023-03-21T06:38:16;28.03;;;17.13;;
2111;SDS011;1062;52.538;13.400;2023-03-21T06:40:41;25.73;;;17.23;;
2111;SDS011;1062;52.538;13.400;2023-03-21T06:43:09;24.80;;;17.23;;
2111;SDS011;1062;52.538;13.400;2023-03-21T06:45:34;31.90;;;17.93;;
2111;SDS011;1062;52.538;13.400;2023-03-21T06:48:00;21.87;;;15.00;;
2111;SDS011;1062;52.538;13.400;2023-03-21T06:50:25;26.77;;;17.90;;
2111;SDS011;1062;52.538;13.400;2023-03-21T06:52:51;30.30;;;16.33;;
2111;SDS011;1062;52.538;13.400;2023-03-21T06:55:17;34.33;;;18.10;;
2111;SDS011;1062;52.538;13.400;2023-03-21T06:57:43;29.50;;;16.93;;
2111;SDS011;1062;52.538;13.400;2023-03-21T07:00:09;28.47;;;18.03;;
2111;SDS011;1062;52.538;13.400;2023-03-21T07:02:36;32.83;;;18.37;;
2111;SDS011;1062;52.538;13.400;2023-03-21T07:05:01;26.77;;;16.77;;
2111;SDS011;1062;52.538;13.400;2023-03-21T07:07:27;27.30;;;17.53;;
2111;SDS011;1062;52.538;13.400;2023-03-21T07:09:53;25.27;;;16.40;;
2111;SDS011;1062;52.538;13.400;2023-03-21T07:12:20;27.87;;;17.30;;
2111;SDS011;1062;52.538;13.400;2023-03-21T07:14:47;25.63;;;16.77;;
2111;SDS011;1062;52.538;13.400;2023-03-21T07:17:12;27.70;;;16.80;;
2111;SDS011;1062;52.538;13.400;2023-03-21T07:19:38;31.00;;;19.23;;
2111;SDS011;1062;52.538;13.400;2023-03-21T07:22:04;20.80;;;16.37;;
2111;SDS011;1062;52.538;13.400;2023-03-21T07:24:29;25.80;;;16.43;;
2111;SDS011;1062;52.538;13.400;2023-03-21T07:26:55;28.47;;;19.70;;
2111;SDS011;1062;52.538;13.400;2023-03-21T07:29:21;30.70;;;18.83;;
2111;SDS011;1062;52.538;13.400;2023-03-21T07:31:47;27.40;;;17.60;;
2111;SDS011;1062;52.538;13.400;2023-03-21T07:34:13;27.93;;;16.73;;
2111;SDS011;1062;52.538;13.400;2023-03-21T07:36:40;26.80;;;17.10;;
2111;SDS011;1062;52.538;13.400;2023-03-21T07:39:06;32.20;;;20.00;;
2111;SDS011;1062;52.538;13.400;2023-03-21T07:41:32;32.60;;;19.50;;
2111;SDS011;1062;52.538;13.400;2023-03-21T07:43:57;27.77;;;18.73;;
2111;SDS011;1062;52.538;13.400;2023-03-21T07:46:23;27.17;;;18.40;;
2111;SDS011;1062;52.538;13.400;2023-03-21T07:48:49;35.93;;;18.13;;
2111;SDS011;1062;52.538;13.400;2023-03-21T07:51:15;28.50;;;17.87;;
2111;SDS011;1062;52.538;13.400;2023-03-21T07:53:40;26.90;;;18.40;;
2111;SDS011;1062;52.538;13.400;2023-03-21T07:56:07;32.30;;;18.40;;
2111;SDS011;1062;52.538;13.400;2023-03-21T07:58:33;30.37;;;17.53;;
2111;SDS011;1062;52.538;13.400;2023-03-21T08:00:59;32.23;;;18.67;;
2111;SDS011;1062;52.538;13.400;2023-03-21T08:03:26;27.97;;;17.67;;
2111;SDS011;1062;52.538;13.400;2023-03-21T08:05:53;32.33;;;19.50;;
2111;SDS011;1062;52.538;13.400;2023-03-21T08:08:19;28.87;;;17.93;;
2111;SDS011;1062;52.538;13.400;2023-03-21T08:10:44;29.27;;;18.20;;
2111;SDS011;1062;52.538;13.400;2023-03-21T08:13:10;29.23;;;17.03;;
2111;SDS011;1062;52.538;13.400;2023-03-21T08:15:37;22.50;;;16.90;;
2111;SDS011;1062;52.538;13.400;2023-03-21T08:18:05;29.87;;;16.53;;
2111;SDS011;1062;52.538;13.400;2023-03-21T08:20:31;32.73;;;19.70;;
2111;SDS011;1062;52.538;13.400;2023-03-21T08:22:57;35.33;;;18.57;;
2111;SDS011;1062;52.538;13.400;2023-03-21T08:25:23;30.10;;;19.73;;
2111;SDS011;1062;52.538;13.400;2023-03-21T08:27:49;29.43;;;16.70;;
2111;SDS011;1062;52.538;13.400;2023-03-21T08:30:16;29.30;;;18.07;;
2111;SDS011;1062;52.538;13.400;2023-03-21T08:32:45;33.97;;;19.50;;
2111;SDS011;1062;52.538;13.400;2023-03-21T08:35:11;30.87;;;18.93;;
2111;SDS011;1062;52.538;13.400;2023-03-21T08:37:40;33.90;;;18.57;;
2111;SDS011;1062;52.538;13.400;2023-03-21T08:40:07;26.47;;;17.03;;
2111;SDS011;1062;52.538;13.400;2023-03-21T08:42:37;26.63;;;19.83;;
2111;SDS011;1062;52.538;13.400;2023-03-21T08:45:03;27.80;;;17.27;;
2111;SDS011;1062;52.538;13.400;2023-03-21T08:47:30;32.83;;;17.97;;
2111;SDS011;1062;52.538;13.400;2023-03-21T08:49:56;27.80;;;17.70;;
2111;SDS011;1062;52.538;13.400;2023-03-21T08:52:23;28.90;;;17.13;;
2111;SDS011;1062;52.538;13.400;2023-03-21T08:54:49;29.10;;;19.90;;
2111;SDS011;1062;52.538;13.400;2023-03-21T08:57:15;29.97;;;17.57;;
2111;SDS011;1062;52.538;13.400;2023-03-21T08:59:40;26.97;;;17.80;;
2111;SDS011;1062;52.538;13.400;2023-03-21T09:02:06;27.13;;;18.63;;
2111;SDS011;1062;52.538;13.400;2023-03-21T09:04:32;24.60;;;16.60;;
2111;SDS011;1062;52.538;13.400;2023-03-21T09:06:58;29.57;;;17.10;;
2111;SDS011;1062;52.538;13.400;2023-03-21T09:09:26;26.73;;;17.00;;
2111;SDS011;1062;52.538;13.400;2023-03-21T09:11:52;26.33;;;15.53;;
2111;SDS011;1062;52.538;13.400;2023-03-21T09:14:18;21.43;;;15.00;;
2111;SDS011;1062;52.538;13.400;2023-03-21T09:16:44;25.10;;;16.30;;
2111;SDS011;1062;52.538;13.400;2023-03-21T09:19:10;22.37;;;15.77;;
2111;SDS011;1062;52.538;13.400;2023-03-21T09:21:36;27.70;;;14.43;;
2111;SDS011;1062;52.538;13.400;2023-03-21T09:24:03;24.37;;;15.40;;
2111;SDS011;1062;52.538;13.400;2023-03-21T09:26:30;22.77;;;14.90;;
2111;SDS011;1062;52.538;13.400;2023-03-21T09:28:57;26.57;;;15.67;;
2111;SDS011;1062;52.538;13.400;2023-03-21T09:31:24;24.20;;;14.53;;
2111;SDS011;1062;52.538;13.400;2023-03-21T09:33:52;22.63;;;14.23;;
2111;SDS011;1062;52.538;13.400;2023-03-21T09:36:19;20.87;;;14.50;;
2111;SDS011;1062;52.538;13.400;2023-03-21T09:38:46;24.83;;;14.17;;
2111;SDS011;1062;52.538;13.400;2023-03-21T09:49:33;19.83;;;13.40;;
2111;SDS011;1062;52.538;13.400;2023-03-21T09:52:08;22.80;;;14.60;;
2111;SDS011;1062;52.538;13.400;2023-03-21T09:54:42;19.23;;;13.30;;
2111;SDS011;1062;52.538;13.400;2023-03-21T09:59:43;27.10;;;14.97;;
2111;SDS011;1062;52.538;13.400;2023-03-21T10:04:56;19.00;;;13.60;;
2111;SDS011;1062;52.538;13.400;2023-03-21T10:07:25;21.50;;;13.77;;
2111;SDS011;1062;52.538;13.400;2023-03-21T10:09:52;22.23;;;13.10;;
2111;SDS011;1062;52.538;13.400;2023-03-21T10:12:20;18.00;;;12.43;;
2111;SDS011;1062;52.538;13.400;2023-03-21T10:14:47;23.80;;;12.17;;
2111;SDS011;1062;52.538;13.400;2023-03-21T10:20:10;21.87;;;13.70;;
2111;SDS011;1062;52.538;13.400;2023-03-21T10:22:49;21.80;;;14.33;;
2111;SDS011;1062;52.538;13.400;2023-03-21T10:25:20;19.87;;;12.67;;
2111;SDS011;1062;52.538;13.400;2023-03-21T10:28:07;21.43;;;13.07;;
2111;SDS011;1062;52.538;13.400;2023-03-21T10:33:13;24.07;;;13.03;;
2111;SDS011;1062;52.538;13.400;2023-03-21T10:35:44;19.23;;;12.67;;
2111;SDS011;1062;52.538;13.400;2023-03-21T10:38:15;17.33;;;12.13;;
2111;SDS011;1062;52.538;13.400;2023-03-21T10:40:43;18.23;;;12.47;;
2111;SDS011;1062;52.538;13.400;2023-03-21T10:43:20;22.13;;;15.00;;
2111;SDS011;1062;52.538;13.400;2023-03-21T10:46:04;21.30;;;13.13;;
2111;SDS011;1062;52.538;13.400;2023-03-21T10:48:37;18.20;;;12.80;;
2111;SDS011;1062;52.538;13.400;2023-03-21T10:51:05;20.27;;;13.23;;
2111;SDS011;1062;52.538;13.400;2023-03-21T10:53:38;15.07;;;12.27;;
2111;SDS011;1062;52.538;13.400;2023-03-21T10:56:06;19.60;;;13.23;;
2111;SDS011;1062;52.538;13.400;2023-03-21T10:58:34;17.30;;;11.77;;
2111;SDS011;1062;52.538;13.400;2023-03-21T11:01:03;19.27;;;13.13;;
2111;SDS011;1062;52.538;13.400;2023-03-21T11:03:38;21.77;;;13.33;;
2111;SDS011;1062;52.538;13.400;2023-03-21T11:06:44;23.03;;;13.30;;
2111;SDS011;1062;52.538;13.400;2023-03-21T11:09:06;18.33;;;13.77;;
2111;SDS011;1062;52.538;13.400;2023-03-21T11:11:54;19.47;;;13.50;;
2111;SDS011;1062;52.538;13.400;2023-03-21T11:14:36;20.30;;;13.37;;
2111;SDS011;1062;52.538;13.400;2023-03-21T11:19:45;18.40;;;12.80;;
2111;SDS011;1062;52.538;13.400;2023-03-21T11:22:38;18.90;;;12.13;;
2111;SDS011;1062;52.538;13.400;2023-03-21T11:25:07;19.50;;;12.43;;
2111;SDS011;1062;52.538;13.400;2023-03-21T11:27:36;16.70;;;10.30;;
2111;SDS011;1062;52.538;13.400;2023-03-21T11:30:23;20.77;;;12.77;;
2111;SDS011;1062;52.538;13.400;2023-03-21T11:32:55;17.30;;;11.93;;
2111;SDS011;1062;52.538;13.400;2023-03-21T11:35:22;21.67;;;11.90;;
2111;SDS011;1062;52.538;13.400;2023-03-21T11:37:53;17.57;;;12.30;;
2111;SDS011;1062;52.538;13.400;2023-03-21T11:40:21;19.73;;;13.53;;
2111;SDS011;1062;52.538;13.400;2023-03-21T11:42:52;24.13;;;13.70;;
2111;SDS011;1062;52.538;13.400;2023-03-21T11:45:34;20.07;;;11.63;;
2111;SDS011;1062;52.538;13.400;2023-03-21T11:48:01;16.40;;;11.63;;
2111;SDS011;1062;52.538;13.400;2023-03-21T11:50:47;15.00;;;11.67;;
2111;SDS011;1062;52.538;13.400;2023-03-21T11:59:10;14.00;;;10.40;;
2111;SDS011;1062;52.538;13.400;2023-03-21T12:18:26;14.63;;;10.67;;
2111;SDS011;1062;52.538;13.400;2023-03-21T12:21:19;18.30;;;11.80;;
2111;SDS011;1062;52.538;13.400;2023-03-21T12:26:36;17.53;;;10.80;;
2111;SDS011;1062;52.538;13.400;2023-03-21T12:29:28;21.67;;;11.20;;
2111;SDS011;1062;52.538;13.400;2023-03-21T12:43:29;15.87;;;10.10;;
2111;SDS011;1062;52.538;13.400;2023-03-21T12:46:42;15.57;;;11.60;;
2111;SDS011;1062;52.538;13.400;2023-03-21T12:48:52;11.37;;;9.73;;
2111;SDS011;1062;52.538;13.400;2023-03-21T12:51:35;14.83;;;10.00;;
2111;SDS011;1062;52.538;13.400;2023-03-21T13:05:52;17.30;;;10.17;;
2111;SDS011;1062;52.538;13.400;2023-03-21T13:08:27;14.43;;;9.73;;
2111;SDS011;1062;52.538;13.400;2023-03-21T13:11:21;16.07;;;11.47;;
2111;SDS011;1062;52.538;13.400;2023-03-21T13:16:33;15.50;;;11.43;;
2111;SDS011;1062;52.538;13.400;2023-03-21T13:19:18;16.47;;;10.27;;
2111;SDS011;1062;52.538;13.400;2023-03-21T13:24:46;14.67;;;10.57;;
2111;SDS011;1062;52.538;13.400;2023-03-21T13:30:17;16.73;;;10.37;;
2111;SDS011;1062;52.538;13.400;2023-03-21T13:32:48;14.00;;;10.90;;
2111;SDS011;1062;52.538;13.400;2023-03-21T13:37:42;12.87;;;9.90;;
2111;SDS011;1062;52.538;13.400;2023-03-21T13:42:55;11.47;;;9.50;;
2111;SDS011;1062;52.538;13.400;2023-03-21T13:45:26;10.80;;;9.23;;
2111;SDS011;1062;52.538;13.400;2023-03-21T13:48:28;11.60;;;8.30;;
2111;SDS011;1062;52.538;13.400;2023-03-21T13:51:02;11.03;;;7.73;;
2111;SDS011;1062;52.538;13.400;2023-03-21T13:53:29;9.40;;;7.77;;
2111;SDS011;1062;52.538;13.400;2023-03-21T13:56:06;13.70;;;8.93;;
2111;SDS011;1062;52.538;13.400;2023-03-21T14:09:20;8.30;;;7.40;;
2111;SDS011;1062;52.538;13.400;2023-03-21T14:11:53;8.90;;;7.00;;
2111;SDS011;1062;52.538;13.400;2023-03-21T14:14:20;10.50;;;7.70;;
2111;SDS011;1062;52.538;13.400;2023-03-21T14:16:51;13.10;;;7.13;;
2111;SDS011;1062;52.538;13.400;2023-03-21T14:19:17;8.40;;;6.53;;
2111;SDS011;1062;52.538;13.400;2023-03-21T14:21:47;12.80;;;8.33;;
2111;SDS011;1062;52.538;13.400;2023-03-21T14:24:16;11.30;;;8.00;;
2111;SDS011;1062;52.538;13.400;2023-03-21T14:26:47;11.00;;;8.43;;
2111;SDS011;1062;52.538;13.400;2023-03-21T14:29:30;9.53;;;7.50;;
2111;SDS011;1062;52.538;13.400;2023-03-21T14:31:58;8.83;;;7.70;;
2111;SDS011;1062;52.538;13.400;2023-03-21T14:34:28;9.00;;;7.27;;
2111;SDS011;1062;52.538;13.400;2023-03-21T14:36:57;12.67;;;9.37;;
2111;SDS011;1062;52.538;13.400;2023-03-21T14:39:25;10.40;;;8.23;;
2111;SDS011;1062;52.538;13.400;2023-03-21T14:41:56;9.20;;;7.70;;
2111;SDS011;1062;52.538;13.400;2023-03-21T14:44:39;13.00;;;7.80;;
2111;SDS011;1062;52.538;13.400;2023-03-21T14:47:06;10.77;;;7.77;;
2111;SDS011;1062;52.538;13.400;2023-03-21T14:49:41;9.60;;;7.67;;
2111;SDS011;1062;52.538;13.400;2023-03-21T14:52:09;8.33;;;7.53;;
2111;SDS011;1062;52.538;13.400;2023-03-21T14:54:38;8.67;;;7.23;;
2111;SDS011;1062;52.538;13.400;2023-03-21T14:57:10;8.63;;;6.90;;
2111;SDS011;1062;52.538;13.400;2023-03-21T14:59:42;13.23;;;7.40;;
2111;SDS011;1062;52.538;13.400;2023-03-21T15:02:16;11.60;;;7.93;;
2111;SDS011;1062;52.538;13.400;2023-03-21T15:04:44;9.07;;;6.30;;
2111;SDS011;1062;52.538;13.400;2023-03-21T15:07:24;8.23;;;6.60;;
2111;SDS011;1062;52.538;13.400;2023-03-21T15:09:56;7.90;;;6.03;;
2111;SDS011;1062;52.538;13.400;2023-03-21T15:12:29;7.67;;;6.97;;
2111;SDS011;1062;52.538;13.400;2023-03-21T15:14:55;8.23;;;7.40;;
2111;SDS011;1062;52.538;13.400;2023-03-21T15:17:22;10.10;;;7.33;;
2111;SDS011;1062;52.538;13.400;2023-03-21T15:19:49;10.70;;;7.70;;
2111;SDS011;1062;52.538;13.400;2023-03-21T15:22:29;10.13;;;8.73;;
2111;SDS011;1062;52.538;13.400;2023-03-21T15:25:02;8.37;;;7.17;;
2111;SDS011;1062;52.538;13.400;2023-03-21T15:27:31;7.93;;;7.20;;
2111;SDS011;1062;52.538;13.400;2023-03-21T15:30:00;9.97;;;7.50;;
2111;SDS011;1062;52.538;13.400;2023-03-21T15:32:26;10.23;;;9.23;;
2111;SDS011;1062;52.538;13.400;2023-03-21T15:34:52;12.10;;;7.60;;
2111;SDS011;1062;52.538;13.400;2023-03-21T15:37:22;9.10;;;7.93;;
2111;SDS011;1062;52.538;13.400;2023-03-21T15:39:50;8.57;;;6.60;;
2111;SDS011;1062;52.538;13.400;2023-03-21T15:42:31;11.03;;;7.30;;
2111;SDS011;1062;52.538;13.400;2023-03-21T15:45:02;9.53;;;7.13;;
2111;SDS011;1062;52.538;13.400;2023-03-21T15:53:16;9.27;;;7.47;;
2111;SDS011;1062;52.538;13.400;2023-03-21T15:55:50;8.60;;;6.30;;
2111;SDS011;1062;52.538;13.400;2023-03-21T15:58:26;14.93;;;7.07;;
2111;SDS011;1062;52.538;13.400;2023-03-21T16:01:02;7.97;;;6.90;;
2111;SDS011;1062;52.538;13.400;2023-03-21T16:03:30;15.03;;;8.53;;
2111;SDS011;1062;52.538;13.400;2023-03-21T16:06:13;8.57;;;7.67;;
2111;SDS011;1062;52.538;13.400;2023-03-21T16:08:46;7.40;;;6.63;;
2111;SDS011;1062;52.538;13.400;2023-03-21T16:13:50;8.73;;;6.07;;
2111;SDS011;1062;52.538;13.400;2023-03-21T16:16:24;12.47;;;6.70;;
2111;SDS011;1062;52.538;13.400;2023-03-21T16:18:51;9.67;;;6.90;;
2111;SDS011;1062;52.538;13.400;2023-03-21T16:21:19;8.63;;;7.80;;
2111;SDS011;1062;52.538;13.400;2023-03-21T16:23:46;8.70;;;7.30;;
2111;SDS011;1062;52.538;13.400;2023-03-21T16:26:13;8.07;;;6.67;;
2111;SDS011;1062;52.538;13.400;2023-03-21T16:28:41;8.70;;;7.20;;
2111;SDS011;1062;52.538;13.400;2023-03-21T16:31:11;9.77;;;7.30;;
2111;SDS011;1062;52.538;13.400;2023-03-21T16:33:39;10.47;;;8.67;;
2111;SDS011;1062;52.538;13.400;2023-03-21T16:36:07;14.90;;;8.07;;
2111;SDS011;1062;52.538;13.400;2023-03-21T16:38:44;9.90;;;8.40;;
2111;SDS011;1062;52.538;13.400;2023-03-21T16:41:12;16.77;;;8.13;;
2111;SDS011;1062;52.538;13.400;2023-03-21T16:43:38;14.43;;;9.10;;
2111;SDS011;1062;52.538;13.400;2023-03-21T16:46:20;9.67;;;7.70;;
2111;SDS011;1062;52.538;13.400;2023-03-21T16:48:50;11.20;;;9.67;;
2111;SDS011;1062;52.538;13.400;2023-03-21T16:51:21;12.47;;;10.03;;
2111;SDS011;1062;52.538;13.400;2023-03-21T16:53:50;12.80;;;10.30;;
2111;SDS011;1062;52.538;13.400;2023-03-21T16:56:24;11.53;;;10.27;;
2111;SDS011;1062;52.538;13.400;2023-03-21T16:58:55;14.53;;;10.90;;
2111;SDS011;1062;52.538;13.400;2023-03-21T17:01:22;12.20;;;11.00;;
2111;SDS011;1062;52.538;13.400;2023-03-21T17:03:50;14.93;;;11.10;;
2111;SDS011;1062;52.538;13.400;2023-03-21T17:06:17;15.07;;;12.47;;
2111;SDS011;1062;52.538;13.400;2023-03-21T17:08:45;13.93;;;11.03;;
2111;SDS011;1062;52.538;13.400;2023-03-21T17:11:12;13.17;;;10.47;;
2111;SDS011;1062;52.538;13.400;2023-03-21T17:13:44;18.20;;;10.90;;
2111;SDS011;1062;52.538;13.400;2023-03-21T17:16:14;16.10;;;12.70;;